sensor_id;sensor_type;location;lat;lon;timestamp;temperature;humidity
3380;DHT22;1703;51.964;7.642;2023-06-05T00:02:00;16.00;99.90
3380;DHT22;1703;51.964;7.642;2023-06-05T00:04:27;16.00;99.90
3380;DHT22;1703;51.964;7.642;2023-06-05T00:06:54;15.90;99.90
3380;DHT22;1703;51.964;7.642;2023-06-05T00:09:22;15.90;99.90
3380;DHT22;1703;51.964;7.642;2023-06-05T00:11:49;15.90;99.90
3380;DHT22;1703;51.964;7.642;2023-06-05T00:14:16;15.90;99.90
3380;DHT22;1703;51.964;7.642;2023-06-05T00:16:44;15.80;99.90
3380;DHT22;1703;51.964;7.642;2023-06-05T00:19:11;15.70;99.90
3380;DHT22;1703;51.964;7.642;2023-06-05T00:21:38;15.70;99.90
3380;DHT22;1703;51.964;7.642;2023-06-05T00:24:05;15.70;99.90
3380;DHT22;1703;51.964;7.642;2023-06-05T00:26:32;15.60;99.90
3380;DHT22;1703;51.964;7.642;2023-06-05T00:28:59;15.60;99.90
3380;DHT22;1703;51.964;7.642;2023-06-05T00:31:26;15.50;99.90
3380;DHT22;1703;51.964;7.642;2023-06-05T00:33:54;15.50;99.90
3380;DHT22;1703;51.964;7.642;2023-06-05T00:36:21;15.60;99.90
3380;DHT22;1703;51.964;7.642;2023-06-05T00:38:49;15.50;99.90
3380;DHT22;1703;51.964;7.642;2023-06-05T00:41:16;15.50;99.90
3380;DHT22;1703;51.964;7.642;2023-06-05T00:43:44;15.40;99.90
3380;DHT22;1703;51.964;7.642;2023-06-05T00:46:11;15.40;99.90
3380;DHT22;1703;51.964;7.642;2023-06-05T00:48:38;15.30;99.90
3380;DHT22;1703;51.964;7.642;2023-06-05T00:51:07;15.30;99.90
3380;DHT22;1703;51.964;7.642;2023-06-05T00:53:36;15.30;99.90
3380;DHT22;1703;51.964;7.642;2023-06-05T00:56:05;15.20;99.90
3380;DHT22;1703;51.964;7.642;2023-06-05T00:58:32;15.20;99.90
3380;DHT22;1703;51.964;7.642;2023-06-05T01:01:00;15.20;99.90
3380;DHT22;1703;51.964;7.642;2023-06-05T01:03:30;15.10;99.90
3380;DHT22;1703;51.964;7.642;2023-06-05T01:05:59;15.10;99.90
3380;DHT22;1703;51.964;7.642;2023-06-05T01:08:31;15.00;99.90
3380;DHT22;1703;51.964;7.642;2023-06-05T01:11:07;15.00;99.90
3380;DHT22;1703;51.964;7.642;2023-06-05T01:13:42;14.90;99.90
3380;DHT22;1703;51.964;7.642;2023-06-05T01:16:11;14.90;99.90
3380;DHT22;1703;51.964;7.642;2023-06-05T01:18:38;14.90;99.90
3380;DHT22;1703;51.964;7.642;2023-06-05T01:21:11;14.80;99.90
3380;DHT22;1703;51.964;7.642;2023-06-05T01:23:41;14.80;99.90
3380;DHT22;1703;51.964;7.642;2023-06-05T01:26:15;14.70;99.90
3380;DHT22;1703;51.964;7.642;2023-06-05T01:28:47;14.70;99.90
3380;DHT22;1703;51.964;7.642;2023-06-05T01:31:18;14.70;99.90
3380;DHT22;1703;51.964;7.642;2023-06-05T01:33:50;14.60;99.90
3380;DHT22;1703;51.964;7.642;2023-06-05T01:36:19;14.50;99.90
3380;DHT22;1703;51.964;7.642;2023-06-05T01:38:49;14.50;99.90
3380;DHT22;1703;51.964;7.642;2023-06-05T01:41:18;14.50;99.90
3380;DHT22;1703;51.964;7.642;2023-06-05T01:43:46;14.40;99.90
3380;DHT22;1703;51.964;7.642;2023-06-05T01:46:17;14.40;99.90
3380;DHT22;1703;51.964;7.642;2023-06-05T01:48:45;14.30;99.90
3380;DHT22;1703;51.964;7.642;2023-06-05T01:51:12;14.20;99.90
3380;DHT22;1703;51.964;7.642;2023-06-05T01:53:39;14.20;99.90
3380;DHT22;1703;51.964;7.642;2023-06-05T01:56:07;14.20;99.90
3380;DHT22;1703;51.964;7.642;2023-06-05T01:58:35;14.20;99.90
3380;DHT22;1703;51.964;7.642;2023-06-05T02:01:02;14.10;99.90
3380;DHT22;1703;51.964;7.642;2023-06-05T02:03:31;14.10;99.90
3380;DHT22;1703;51.964;7.642;2023-06-05T02:05:58;14.10;99.90
3380;DHT22;1703;51.964;7.642;2023-06-05T02:08:25;14.10;99.90
3380;DHT22;1703;51.964;7.642;2023-06-05T02:10:53;14.00;99.90
3380;DHT22;1703;51.964;7.642;2023-06-05T02:13:22;14.00;99.90
3380;DHT22;1703;51.964;7.642;2023-06-05T02:15:50;14.00;99.90
3380;DHT22;1703;51.964;7.642;2023-06-05T02:18:21;13.90;99.90
3380;DHT22;1703;51.964;7.642;2023-06-05T02:20:53;13.90;99.90
3380;DHT22;1703;51.964;7.642;2023-06-05T02:23:20;13.90;99.90
3380;DHT22;1703;51.964;7.642;2023-06-05T02:25:47;13.90;99.90
3380;DHT22;1703;51.964;7.642;2023-06-05T02:28:14;13.80;99.90
3380;DHT22;1703;51.964;7.642;2023-06-05T02:30:43;13.80;99.90
3380;DHT22;1703;51.964;7.642;2023-06-05T02:33:11;13.80;99.90
3380;DHT22;1703;51.964;7.642;2023-06-05T02:35:37;13.70;99.90
3380;DHT22;1703;51.964;7.642;2023-06-05T02:38:06;13.70;99.90
3380;DHT22;1703;51.964;7.642;2023-06-05T02:40:33;13.70;99.90
3380;DHT22;1703;51.964;7.642;2023-06-05T02:43:00;13.70;99.90
3380;DHT22;1703;51.964;7.642;2023-06-05T02:45:27;13.70;99.90
3380;DHT22;1703;51.964;7.642;2023-06-05T02:47:55;13.70;99.90
3380;DHT22;1703;51.964;7.642;2023-06-05T02:50:22;13.60;99.90
3380;DHT22;1703;51.964;7.642;2023-06-05T02:52:52;13.60;99.90
3380;DHT22;1703;51.964;7.642;2023-06-05T02:55:25;13.50;99.90
3380;DHT22;1703;51.964;7.642;2023-06-05T02:57:57;13.50;99.90
3380;DHT22;1703;51.964;7.642;2023-06-05T03:00:32;13.60;99.90
3380;DHT22;1703;51.964;7.642;2023-06-05T03:03:00;13.60;99.90
3380;DHT22;1703;51.964;7.642;2023-06-05T03:05:32;13.50;99.90
3380;DHT22;1703;51.964;7.642;2023-06-05T03:08:04;13.50;99.90
3380;DHT22;1703;51.964;7.642;2023-06-05T03:10:32;13.40;99.90
3380;DHT22;1703;51.964;7.642;2023-06-05T03:12:59;13.50;99.90
3380;DHT22;1703;51.964;7.642;2023-06-05T03:15:30;13.50;99.90
3380;DHT22;1703;51.964;7.642;2023-06-05T03:17:57;13.40;99.90
3380;DHT22;1703;51.964;7.642;2023-06-05T03:20:26;13.40;99.90
3380;DHT22;1703;51.964;7.642;2023-06-05T03:22:53;13.30;99.90
3380;DHT22;1703;51.964;7.642;2023-06-05T03:25:22;13.30;99.90
3380;DHT22;1703;51.964;7.642;2023-06-05T03:27:53;13.30;99.90
3380;DHT22;1703;51.964;7.642;2023-06-05T03:30:22;13.20;99.90
3380;DHT22;1703;51.964;7.642;2023-06-05T03:32:53;13.20;99.90
3380;DHT22;1703;51.964;7.642;2023-06-05T03:35:20;13.20;99.90
3380;DHT22;1703;51.964;7.642;2023-06-05T03:37:48;13.20;99.90
3380;DHT22;1703;51.964;7.642;2023-06-05T03:40:15;13.20;99.90
3380;DHT22;1703;51.964;7.642;2023-06-05T03:42:42;13.30;99.90
3380;DHT22;1703;51.964;7.642;2023-06-05T03:45:10;13.30;99.90
3380;DHT22;1703;51.964;7.642;2023-06-05T03:47:38;13.20;99.90
3380;DHT22;1703;51.964;7.642;2023-06-05T03:50:08;13.20;99.90
3380;DHT22;1703;51.964;7.642;2023-06-05T03:52:39;13.20;99.90
3380;DHT22;1703;51.964;7.642;2023-06-05T03:55:09;13.20;99.90
3380;DHT22;1703;51.964;7.642;2023-06-05T03:57:36;13.20;99.90
3380;DHT22;1703;51.964;7.642;2023-06-05T04:00:06;13.10;99.90
3380;DHT22;1703;51.964;7.642;2023-06-05T04:02:38;13.10;99.90
3380;DHT22;1703;51.964;7.642;2023-06-05T04:05:07;13.10;99.90
3380;DHT22;1703;51.964;7.642;2023-06-05T04:07:38;13.10;99.90
3380;DHT22;1703;51.964;7.642;2023-06-05T04:10:06;13.10;99.90
3380;DHT22;1703;51.964;7.642;2023-06-05T04:12:34;13.10;99.90
3380;DHT22;1703;51.964;7.642;2023-06-05T04:15:01;13.00;99.90
3380;DHT22;1703;51.964;7.642;2023-06-05T04:17:29;13.00;99.90
3380;DHT22;1703;51.964;7.642;2023-06-05T04:19:56;13.10;99.90
3380;DHT22;1703;51.964;7.642;2023-06-05T04:22:23;13.10;99.90
3380;DHT22;1703;51.964;7.642;2023-06-05T04:24:50;13.00;99.90
3380;DHT22;1703;51.964;7.642;2023-06-05T04:27:18;13.10;99.90
3380;DHT22;1703;51.964;7.642;2023-06-05T04:29:46;13.10;99.90
3380;DHT22;1703;51.964;7.642;2023-06-05T04:32:14;13.00;99.90
3380;DHT22;1703;51.964;7.642;2023-06-05T04:34:42;13.10;99.90
3380;DHT22;1703;51.964;7.642;2023-06-05T04:37:09;13.10;99.90
3380;DHT22;1703;51.964;7.642;2023-06-05T04:39:36;13.10;99.90
3380;DHT22;1703;51.964;7.642;2023-06-05T04:42:04;13.10;99.90
3380;DHT22;1703;51.964;7.642;2023-06-05T04:44:34;13.20;99.90
3380;DHT22;1703;51.964;7.642;2023-06-05T04:47:04;13.20;99.90
3380;DHT22;1703;51.964;7.642;2023-06-05T04:49:32;13.20;99.90
3380;DHT22;1703;51.964;7.642;2023-06-05T04:51:59;13.20;99.90
3380;DHT22;1703;51.964;7.642;2023-06-05T04:54:26;13.30;99.90
3380;DHT22;1703;51.964;7.642;2023-06-05T04:56:53;13.40;99.90
3380;DHT22;1703;51.964;7.642;2023-06-05T04:59:21;13.50;99.90
3380;DHT22;1703;51.964;7.642;2023-06-05T05:01:48;13.50;99.90
3380;DHT22;1703;51.964;7.642;2023-06-05T05:04:17;13.50;99.90
3380;DHT22;1703;51.964;7.642;2023-06-05T05:06:44;13.50;99.90
3380;DHT22;1703;51.964;7.642;2023-06-05T05:09:13;13.40;99.90
3380;DHT22;1703;51.964;7.642;2023-06-05T05:11:40;13.40;99.90
3380;DHT22;1703;51.964;7.642;2023-06-05T05:14:07;13.50;99.90
3380;DHT22;1703;51.964;7.642;2023-06-05T05:16:34;13.60;99.90
3380;DHT22;1703;51.964;7.642;2023-06-05T05:19:01;13.60;99.90
3380;DHT22;1703;51.964;7.642;2023-06-05T05:21:29;13.60;99.90
3380;DHT22;1703;51.964;7.642;2023-06-05T05:23:57;13.70;99.90
3380;DHT22;1703;51.964;7.642;2023-06-05T05:26:25;13.70;99.90
3380;DHT22;1703;51.964;7.642;2023-06-05T05:28:52;13.80;99.90
3380;DHT22;1703;51.964;7.642;2023-06-05T05:31:20;13.80;99.90
3380;DHT22;1703;51.964;7.642;2023-06-05T05:33:48;13.80;99.90
3380;DHT22;1703;51.964;7.642;2023-06-05T05:36:15;13.90;99.90
3380;DHT22;1703;51.964;7.642;2023-06-05T05:38:45;13.90;99.90
3380;DHT22;1703;51.964;7.642;2023-06-05T05:41:12;13.90;99.90
3380;DHT22;1703;51.964;7.642;2023-06-05T05:43:38;14.00;99.90
3380;DHT22;1703;51.964;7.642;2023-06-05T05:46:05;14.00;99.90
3380;DHT22;1703;51.964;7.642;2023-06-05T05:48:35;14.00;99.90
3380;DHT22;1703;51.964;7.642;2023-06-05T05:51:02;14.00;99.90
3380;DHT22;1703;51.964;7.642;2023-06-05T05:53:28;14.00;99.90
3380;DHT22;1703;51.964;7.642;2023-06-05T05:55:56;14.20;99.90
3380;DHT22;1703;51.964;7.642;2023-06-05T05:58:23;14.20;99.90
3380;DHT22;1703;51.964;7.642;2023-06-05T06:00:50;14.30;99.90
3380;DHT22;1703;51.964;7.642;2023-06-05T06:03:18;14.40;99.90
3380;DHT22;1703;51.964;7.642;2023-06-05T06:05:46;14.50;99.90
3380;DHT22;1703;51.964;7.642;2023-06-05T06:08:13;14.50;99.90
3380;DHT22;1703;51.964;7.642;2023-06-05T06:10:41;14.60;99.90
3380;DHT22;1703;51.964;7.642;2023-06-05T06:13:09;14.70;99.90
3380;DHT22;1703;51.964;7.642;2023-06-05T06:15:36;14.80;99.90
3380;DHT22;1703;51.964;7.642;2023-06-05T06:18:04;14.80;99.90
3380;DHT22;1703;51.964;7.642;2023-06-05T06:20:31;14.80;99.90
3380;DHT22;1703;51.964;7.642;2023-06-05T06:22:58;14.80;99.90
3380;DHT22;1703;51.964;7.642;2023-06-05T06:25:25;14.80;99.90
3380;DHT22;1703;51.964;7.642;2023-06-05T06:27:57;14.80;99.90
3380;DHT22;1703;51.964;7.642;2023-06-05T06:30:25;14.90;99.90
3380;DHT22;1703;51.964;7.642;2023-06-05T06:32:53;14.90;99.90
3380;DHT22;1703;51.964;7.642;2023-06-05T06:35:23;14.90;99.90
3380;DHT22;1703;51.964;7.642;2023-06-05T06:37:52;15.00;99.90
3380;DHT22;1703;51.964;7.642;2023-06-05T06:40:20;15.20;99.90
3380;DHT22;1703;51.964;7.642;2023-06-05T06:42:47;15.20;99.90
3380;DHT22;1703;51.964;7.642;2023-06-05T06:45:30;15.10;99.90
3380;DHT22;1703;51.964;7.642;2023-06-05T06:47:56;15.20;99.90
3380;DHT22;1703;51.964;7.642;2023-06-05T06:50:23;15.30;99.90
3380;DHT22;1703;51.964;7.642;2023-06-05T06:52:50;15.40;99.90
3380;DHT22;1703;51.964;7.642;2023-06-05T06:55:17;15.30;99.90
3380;DHT22;1703;51.964;7.642;2023-06-05T06:57:43;15.40;99.90
3380;DHT22;1703;51.964;7.642;2023-06-05T07:00:11;15.50;99.90
3380;DHT22;1703;51.964;7.642;2023-06-05T07:02:40;15.50;99.90
3380;DHT22;1703;51.964;7.642;2023-06-05T07:05:07;15.60;99.90
3380;DHT22;1703;51.964;7.642;2023-06-05T07:07:35;15.70;99.90
3380;DHT22;1703;51.964;7.642;2023-06-05T07:10:01;15.70;99.90
3380;DHT22;1703;51.964;7.642;2023-06-05T07:12:28;15.70;99.90
3380;DHT22;1703;51.964;7.642;2023-06-05T07:14:55;15.80;99.90
3380;DHT22;1703;51.964;7.642;2023-06-05T07:17:22;15.90;99.90
3380;DHT22;1703;51.964;7.642;2023-06-05T07:19:50;16.00;99.90
3380;DHT22;1703;51.964;7.642;2023-06-05T07:22:17;16.20;99.90
3380;DHT22;1703;51.964;7.642;2023-06-05T07:24:43;16.30;99.90
3380;DHT22;1703;51.964;7.642;2023-06-05T07:27:11;16.30;99.90
3380;DHT22;1703;51.964;7.642;2023-06-05T07:29:38;16.50;99.90
3380;DHT22;1703;51.964;7.642;2023-06-05T07:32:05;16.70;99.90
3380;DHT22;1703;51.964;7.642;2023-06-05T07:34:32;16.60;99.90
3380;DHT22;1703;51.964;7.642;2023-06-05T07:37:01;16.70;99.90
3380;DHT22;1703;51.964;7.642;2023-06-05T07:39:28;16.80;99.90
3380;DHT22;1703;51.964;7.642;2023-06-05T07:41:55;16.90;99.90
3380;DHT22;1703;51.964;7.642;2023-06-05T07:44:22;17.00;99.90
3380;DHT22;1703;51.964;7.642;2023-06-05T07:46:49;17.20;99.90
3380;DHT22;1703;51.964;7.642;2023-06-05T07:49:17;17.20;99.90
3380;DHT22;1703;51.964;7.642;2023-06-05T07:51:44;17.20;99.90
3380;DHT22;1703;51.964;7.642;2023-06-05T07:54:15;17.30;99.90
3380;DHT22;1703;51.964;7.642;2023-06-05T07:56:42;17.40;99.90
3380;DHT22;1703;51.964;7.642;2023-06-05T07:59:10;17.40;99.90
3380;DHT22;1703;51.964;7.642;2023-06-05T08:01:39;17.50;99.90
3380;DHT22;1703;51.964;7.642;2023-06-05T08:04:07;17.50;99.90
3380;DHT22;1703;51.964;7.642;2023-06-05T08:06:35;17.50;99.90
3380;DHT22;1703;51.964;7.642;2023-06-05T08:09:03;17.60;99.90
3380;DHT22;1703;51.964;7.642;2023-06-05T08:11:32;17.60;99.90
3380;DHT22;1703;51.964;7.642;2023-06-05T08:13:59;17.80;99.90
3380;DHT22;1703;51.964;7.642;2023-06-05T08:16:26;17.80;99.90
3380;DHT22;1703;51.964;7.642;2023-06-05T08:18:53;17.80;99.90
3380;DHT22;1703;51.964;7.642;2023-06-05T08:21:20;17.90;99.90
3380;DHT22;1703;51.964;7.642;2023-06-05T08:23:47;18.10;99.90
3380;DHT22;1703;51.964;7.642;2023-06-05T08:26:14;18.20;99.90
3380;DHT22;1703;51.964;7.642;2023-06-05T08:28:42;18.20;99.90
3380;DHT22;1703;51.964;7.642;2023-06-05T08:31:09;18.10;99.90
3380;DHT22;1703;51.964;7.642;2023-06-05T08:33:37;18.30;99.90
3380;DHT22;1703;51.964;7.642;2023-06-05T08:36:05;18.40;99.90
3380;DHT22;1703;51.964;7.642;2023-06-05T08:38:33;18.50;99.90
3380;DHT22;1703;51.964;7.642;2023-06-05T08:41:01;18.60;99.90
3380;DHT22;1703;51.964;7.642;2023-06-05T08:43:28;18.60;99.90
3380;DHT22;1703;51.964;7.642;2023-06-05T08:45:57;18.70;99.90
3380;DHT22;1703;51.964;7.642;2023-06-05T08:48:24;18.70;99.90
3380;DHT22;1703;51.964;7.642;2023-06-05T08:50:51;18.80;99.90
3380;DHT22;1703;51.964;7.642;2023-06-05T08:53:21;19.00;99.90
3380;DHT22;1703;51.964;7.642;2023-06-05T08:55:54;18.90;99.90
3380;DHT22;1703;51.964;7.642;2023-06-05T08:58:21;18.90;99.90
3380;DHT22;1703;51.964;7.642;2023-06-05T09:00:48;19.00;99.90
3380;DHT22;1703;51.964;7.642;2023-06-05T09:03:17;19.00;99.90
3380;DHT22;1703;51.964;7.642;2023-06-05T09:05:46;19.00;99.90
3380;DHT22;1703;51.964;7.642;2023-06-05T09:08:14;19.20;99.90
3380;DHT22;1703;51.964;7.642;2023-06-05T09:10:42;19.00;99.90
3380;DHT22;1703;51.964;7.642;2023-06-05T09:13:09;19.20;99.90
3380;DHT22;1703;51.964;7.642;2023-06-05T09:15:36;19.30;99.90
3380;DHT22;1703;51.964;7.642;2023-06-05T09:18:05;19.20;99.90
3380;DHT22;1703;51.964;7.642;2023-06-05T09:20:36;19.30;99.90
3380;DHT22;1703;51.964;7.642;2023-06-05T09:23:04;19.30;99.90
3380;DHT22;1703;51.964;7.642;2023-06-05T09:25:45;19.40;99.90
3380;DHT22;1703;51.964;7.642;2023-06-05T09:28:13;19.50;99.90
3380;DHT22;1703;51.964;7.642;2023-06-05T09:30:54;19.60;99.90
3380;DHT22;1703;51.964;7.642;2023-06-05T09:33:22;19.60;99.90
3380;DHT22;1703;51.964;7.642;2023-06-05T09:36:06;19.80;99.90
3380;DHT22;1703;51.964;7.642;2023-06-05T09:38:33;19.80;99.90
3380;DHT22;1703;51.964;7.642;2023-06-05T09:41:04;19.90;99.90
3380;DHT22;1703;51.964;7.642;2023-06-05T09:43:32;20.00;99.90
3380;DHT22;1703;51.964;7.642;2023-06-05T09:45:59;20.10;99.90
3380;DHT22;1703;51.964;7.642;2023-06-05T09:48:26;20.10;99.90
3380;DHT22;1703;51.964;7.642;2023-06-05T09:50:53;20.10;99.90
3380;DHT22;1703;51.964;7.642;2023-06-05T09:53:21;20.20;99.90
3380;DHT22;1703;51.964;7.642;2023-06-05T09:55:49;20.20;99.90
3380;DHT22;1703;51.964;7.642;2023-06-05T09:58:16;20.30;99.90
3380;DHT22;1703;51.964;7.642;2023-06-05T10:00:44;20.30;99.90
3380;DHT22;1703;51.964;7.642;2023-06-05T10:03:14;20.40;99.90
3380;DHT22;1703;51.964;7.642;2023-06-05T10:05:44;20.50;99.90
3380;DHT22;1703;51.964;7.642;2023-06-05T10:08:11;20.70;99.90
3380;DHT22;1703;51.964;7.642;2023-06-05T10:10:41;20.70;99.90
3380;DHT22;1703;51.964;7.642;2023-06-05T10:13:09;20.60;99.90
3380;DHT22;1703;51.964;7.642;2023-06-05T10:15:38;20.60;99.90
3380;DHT22;1703;51.964;7.642;2023-06-05T10:18:06;20.80;99.90
3380;DHT22;1703;51.964;7.642;2023-06-05T10:20:34;20.90;99.90
3380;DHT22;1703;51.964;7.642;2023-06-05T10:23:02;21.00;99.90
3380;DHT22;1703;51.964;7.642;2023-06-05T10:25:30;21.10;99.90
3380;DHT22;1703;51.964;7.642;2023-06-05T10:28:16;21.10;99.90
3380;DHT22;1703;51.964;7.642;2023-06-05T10:31:10;21.30;99.90
3380;DHT22;1703;51.964;7.642;2023-06-05T10:33:55;21.40;99.90
3380;DHT22;1703;51.964;7.642;2023-06-05T10:40:12;21.50;99.90
3380;DHT22;1703;51.964;7.642;2023-06-05T10:42:42;21.60;99.90
3380;DHT22;1703;51.964;7.642;2023-06-05T10:45:10;21.60;99.90
3380;DHT22;1703;51.964;7.642;2023-06-05T10:47:55;21.70;99.90
3380;DHT22;1703;51.964;7.642;2023-06-05T10:50:24;21.80;99.90
3380;DHT22;1703;51.964;7.642;2023-06-05T10:52:53;21.90;99.90
3380;DHT22;1703;51.964;7.642;2023-06-05T10:55:21;22.10;99.90
3380;DHT22;1703;51.964;7.642;2023-06-05T10:58:06;22.20;99.90
3380;DHT22;1703;51.964;7.642;2023-06-05T11:00:36;22.20;99.90
3380;DHT22;1703;51.964;7.642;2023-06-05T11:03:05;22.20;99.90
3380;DHT22;1703;51.964;7.642;2023-06-05T11:05:33;22.40;99.90
3380;DHT22;1703;51.964;7.642;2023-06-05T11:08:10;22.40;99.90
3380;DHT22;1703;51.964;7.642;2023-06-05T11:11:02;22.40;99.90
3380;DHT22;1703;51.964;7.642;2023-06-05T11:13:53;22.50;99.90
3380;DHT22;1703;51.964;7.642;2023-06-05T11:16:32;22.50;99.90
3380;DHT22;1703;51.964;7.642;2023-06-05T11:19:35;22.50;99.90
3380;DHT22;1703;51.964;7.642;2023-06-05T11:22:03;22.50;99.90
3380;DHT22;1703;51.964;7.642;2023-06-05T11:24:30;22.50;99.90
3380;DHT22;1703;51.964;7.642;2023-06-05T11:26:59;22.50;99.90
3380;DHT22;1703;51.964;7.642;2023-06-05T11:29:26;22.70;99.90
3380;DHT22;1703;51.964;7.642;2023-06-05T11:31:56;22.70;99.90
3380;DHT22;1703;51.964;7.642;2023-06-05T11:34:23;22.90;99.90
3380;DHT22;1703;51.964;7.642;2023-06-05T11:36:49;23.00;99.90
3380;DHT22;1703;51.964;7.642;2023-06-05T11:39:16;23.00;99.90
3380;DHT22;1703;51.964;7.642;2023-06-05T11:41:49;23.10;99.90
3380;DHT22;1703;51.964;7.642;2023-06-05T11:44:30;23.10;99.90
3380;DHT22;1703;51.964;7.642;2023-06-05T11:46:59;23.20;99.90
3380;DHT22;1703;51.964;7.642;2023-06-05T11:49:27;23.20;99.90
3380;DHT22;1703;51.964;7.642;2023-06-05T11:51:55;23.20;99.90
3380;DHT22;1703;51.964;7.642;2023-06-05T11:54:26;23.30;99.90
3380;DHT22;1703;51.964;7.642;2023-06-05T11:57:00;23.30;99.90
3380;DHT22;1703;51.964;7.642;2023-06-05T11:59:34;23.30;99.90
3380;DHT22;1703;51.964;7.642;2023-06-05T12:02:02;23.50;99.90
3380;DHT22;1703;51.964;7.642;2023-06-05T12:04:30;23.60;99.90
3380;DHT22;1703;51.964;7.642;2023-06-05T12:06:57;23.70;99.90
3380;DHT22;1703;51.964;7.642;2023-06-05T12:09:25;23.70;99.90
3380;DHT22;1703;51.964;7.642;2023-06-05T12:11:52;23.80;99.90
3380;DHT22;1703;51.964;7.642;2023-06-05T12:14:29;23.80;99.90
3380;DHT22;1703;51.964;7.642;2023-06-05T12:16:56;23.80;99.90
3380;DHT22;1703;51.964;7.642;2023-06-05T12:19:24;23.80;99.90
3380;DHT22;1703;51.964;7.642;2023-06-05T12:22:01;23.60;99.90
3380;DHT22;1703;51.964;7.642;2023-06-05T12:24:28;23.70;99.90
3380;DHT22;1703;51.964;7.642;2023-06-05T12:26:57;23.60;99.90
3380;DHT22;1703;51.964;7.642;2023-06-05T12:29:27;23.80;99.90
3380;DHT22;1703;51.964;7.642;2023-06-05T12:31:55;23.90;99.90
3380;DHT22;1703;51.964;7.642;2023-06-05T12:34:45;23.90;99.90
3380;DHT22;1703;51.964;7.642;2023-06-05T12:37:21;23.70;99.90
3380;DHT22;1703;51.964;7.642;2023-06-05T12:39:48;23.80;99.90
3380;DHT22;1703;51.964;7.642;2023-06-05T12:42:15;24.00;99.90
3380;DHT22;1703;51.964;7.642;2023-06-05T12:44:42;24.10;99.90
3380;DHT22;1703;51.964;7.642;2023-06-05T12:47:09;24.20;99.90
3380;DHT22;1703;51.964;7.642;2023-06-05T12:49:35;24.30;99.90
3380;DHT22;1703;51.964;7.642;2023-06-05T12:52:05;24.30;99.90
3380;DHT22;1703;51.964;7.642;2023-06-05T12:54:35;24.40;99.90
3380;DHT22;1703;51.964;7.642;2023-06-05T12:57:02;24.60;99.60
3380;DHT22;1703;51.964;7.642;2023-06-05T12:59:29;24.70;99.80
3380;DHT22;1703;51.964;7.642;2023-06-05T13:01:56;24.70;99.20
3380;DHT22;1703;51.964;7.642;2023-06-05T13:04:22;24.70;98.20
3380;DHT22;1703;51.964;7.642;2023-06-05T13:06:50;24.80;98.00
3380;DHT22;1703;51.964;7.642;2023-06-05T13:09:18;24.70;96.40
3380;DHT22;1703;51.964;7.642;2023-06-05T13:11:45;24.80;97.80
3380;DHT22;1703;51.964;7.642;2023-06-05T13:14:12;24.80;96.60
3380;DHT22;1703;51.964;7.642;2023-06-05T13:16:38;24.90;96.40
3380;DHT22;1703;51.964;7.642;2023-06-05T13:19:05;25.20;94.70
3380;DHT22;1703;51.964;7.642;2023-06-05T13:21:32;25.80;94.50
3380;DHT22;1703;51.964;7.642;2023-06-05T13:24:00;26.90;93.80
3380;DHT22;1703;51.964;7.642;2023-06-05T13:26:28;27.90;91.90
3380;DHT22;1703;51.964;7.642;2023-06-05T13:28:55;29.10;90.60
3380;DHT22;1703;51.964;7.642;2023-06-05T13:31:22;30.00;84.40
3380;DHT22;1703;51.964;7.642;2023-06-05T13:33:50;31.00;77.80
3380;DHT22;1703;51.964;7.642;2023-06-05T13:36:17;31.60;68.10
3380;DHT22;1703;51.964;7.642;2023-06-05T13:38:43;31.90;67.00
3380;DHT22;1703;51.964;7.642;2023-06-05T13:41:12;32.60;61.60
3380;DHT22;1703;51.964;7.642;2023-06-05T13:43:40;33.40;59.20
3380;DHT22;1703;51.964;7.642;2023-06-05T13:46:07;34.00;56.10
3380;DHT22;1703;51.964;7.642;2023-06-05T13:48:34;34.20;52.60
3380;DHT22;1703;51.964;7.642;2023-06-05T13:51:03;34.50;50.60
3380;DHT22;1703;51.964;7.642;2023-06-05T13:53:30;35.10;49.10
3380;DHT22;1703;51.964;7.642;2023-06-05T13:56:00;35.60;47.70
3380;DHT22;1703;51.964;7.642;2023-06-05T13:58:27;36.10;47.30
3380;DHT22;1703;51.964;7.642;2023-06-05T14:00:55;36.00;44.30
3380;DHT22;1703;51.964;7.642;2023-06-05T14:03:23;36.30;44.80
3380;DHT22;1703;51.964;7.642;2023-06-05T14:05:50;36.70;43.50
3380;DHT22;1703;51.964;7.642;2023-06-05T14:08:17;36.00;42.10
3380;DHT22;1703;51.964;7.642;2023-06-05T14:10:44;36.00;42.60
3380;DHT22;1703;51.964;7.642;2023-06-05T14:13:14;34.80;41.60
3380;DHT22;1703;51.964;7.642;2023-06-05T14:15:44;33.60;43.10
3380;DHT22;1703;51.964;7.642;2023-06-05T14:18:12;32.40;44.30
3380;DHT22;1703;51.964;7.642;2023-06-05T14:20:39;31.70;45.20
3380;DHT22;1703;51.964;7.642;2023-06-05T14:23:06;30.90;46.20
3380;DHT22;1703;51.964;7.642;2023-06-05T14:25:33;30.30;47.40
3380;DHT22;1703;51.964;7.642;2023-06-05T14:28:00;29.70;48.40
3380;DHT22;1703;51.964;7.642;2023-06-05T14:30:28;29.10;48.60
3380;DHT22;1703;51.964;7.642;2023-06-05T14:32:55;28.60;49.50
3380;DHT22;1703;51.964;7.642;2023-06-05T14:35:24;28.30;49.80
3380;DHT22;1703;51.964;7.642;2023-06-05T14:37:50;28.00;50.40
3380;DHT22;1703;51.964;7.642;2023-06-05T14:40:17;27.60;50.80
3380;DHT22;1703;51.964;7.642;2023-06-05T14:42:44;27.30;51.90
3380;DHT22;1703;51.964;7.642;2023-06-05T14:45:11;27.00;52.10
3380;DHT22;1703;51.964;7.642;2023-06-05T14:47:38;26.70;52.00
3380;DHT22;1703;51.964;7.642;2023-06-05T14:50:06;26.40;52.50
3380;DHT22;1703;51.964;7.642;2023-06-05T14:52:34;26.30;53.70
3380;DHT22;1703;51.964;7.642;2023-06-05T14:55:01;26.20;54.10
3380;DHT22;1703;51.964;7.642;2023-06-05T14:57:28;26.20;54.80
3380;DHT22;1703;51.964;7.642;2023-06-05T14:59:55;26.00;54.50
3380;DHT22;1703;51.964;7.642;2023-06-05T15:02:22;26.00;55.50
3380;DHT22;1703;51.964;7.642;2023-06-05T15:04:48;26.00;55.40
3380;DHT22;1703;51.964;7.642;2023-06-05T15:07:18;25.90;55.60
3380;DHT22;1703;51.964;7.642;2023-06-05T15:09:47;25.90;54.70
3380;DHT22;1703;51.964;7.642;2023-06-05T15:12:15;25.90;55.10
3380;DHT22;1703;51.964;7.642;2023-06-05T15:14:41;25.90;54.50
3380;DHT22;1703;51.964;7.642;2023-06-05T15:17:08;25.70;55.30
3380;DHT22;1703;51.964;7.642;2023-06-05T15:19:35;25.70;55.80
3380;DHT22;1703;51.964;7.642;2023-06-05T15:22:03;25.50;55.70
3380;DHT22;1703;51.964;7.642;2023-06-05T15:24:29;25.40;56.40
3380;DHT22;1703;51.964;7.642;2023-06-05T15:26:57;25.40;56.80
3380;DHT22;1703;51.964;7.642;2023-06-05T15:29:24;25.30;55.80
3380;DHT22;1703;51.964;7.642;2023-06-05T15:31:51;25.30;56.70
3380;DHT22;1703;51.964;7.642;2023-06-05T15:34:18;25.30;57.10
3380;DHT22;1703;51.964;7.642;2023-06-05T15:36:45;25.30;57.40
3380;DHT22;1703;51.964;7.642;2023-06-05T15:39:12;25.20;57.60
3380;DHT22;1703;51.964;7.642;2023-06-05T15:41:39;25.30;58.30
3380;DHT22;1703;51.964;7.642;2023-06-05T15:44:07;25.30;58.00
3380;DHT22;1703;51.964;7.642;2023-06-05T15:46:35;25.20;58.30
3380;DHT22;1703;51.964;7.642;2023-06-05T15:49:02;25.20;57.90
3380;DHT22;1703;51.964;7.642;2023-06-05T15:51:29;25.30;59.20
3380;DHT22;1703;51.964;7.642;2023-06-05T15:53:55;25.50;59.10
3380;DHT22;1703;51.964;7.642;2023-06-05T15:56:24;25.50;58.60
3380;DHT22;1703;51.964;7.642;2023-06-05T15:58:51;25.50;59.10
3380;DHT22;1703;51.964;7.642;2023-06-05T16:01:20;25.60;59.10
3380;DHT22;1703;51.964;7.642;2023-06-05T16:03:46;25.80;59.00
3380;DHT22;1703;51.964;7.642;2023-06-05T16:06:13;25.90;58.50
3380;DHT22;1703;51.964;7.642;2023-06-05T16:08:40;25.70;58.80
3380;DHT22;1703;51.964;7.642;2023-06-05T16:11:07;25.60;59.20
3380;DHT22;1703;51.964;7.642;2023-06-05T16:13:34;25.50;59.80
3380;DHT22;1703;51.964;7.642;2023-06-05T16:16:01;25.40;59.50